< < Back
Terminal Aerodrome Forecast


Current Version              Previous Versions:   1  2  3  4  5  6  7  8  9  

Terminal Aerodrome Forecast

887
FTUS44 KOHX 031733
TAFCSV
TAF
KCSV 031733Z 0318/0418 30006KT P6SM SCT050
     FM040100 00000KT P6SM SCT150
     FM040600 22002KT 4SM BR SCT150
      TEMPO 0409/0412 2SM BR SCT003
     FM041400 26006KT P6SM SCT035=



Latest METAR

757
SAUS70 KWBC 041100 RRH
MTRCSV
METAR KCSV 041053Z AUTO 00000KT 3SM BR CLR 19/18 A3007 RMK AO2 SLP160
T01890178


USA.gov is the U.S. government's official web portal to all federal, state and local government web resources and services.